Time;durP1;ratioP1;P1;durP2;ratioP2;P2;SDS_P1;SDS_P2;PMS_P1;PMS_P2;Temp;Humidity;BMP_temperature;BMP_pressure;BME280_temperature;BME280_humidity;BME280_pressure;Samples;Min_cycle;Max_cycle;Signal;HPM_P1;HPM_P2
2023/12/08 05:43:22;;;;;;;13.20;7.90;;;;;;;-0.01;100.00;100560.01;106640;1280;25410;-49
2023/12/08 05:45:49;;;;;;;14.20;8.80;;;;;;;0.02;100.00;100564.29;109814;1277;22231;-47
2023/12/08 05:48:16;;;;;;;14.50;8.80;;;;;;;0.03;100.00;100566.21;109912;1270;22469;-42
2023/12/08 05:50:42;;;;;;;12.10;7.90;;;;;;;0.06;100.00;100565.81;108754;1260;25268;-47
2023/12/08 05:53:13;;;;;;;13.50;8.50;;;;;;;0.09;100.00;100564.08;109397;1272;22295;-42
2023/12/08 05:55:40;;;;;;;12.80;8.30;;;;;;;0.13;100.00;100568.71;109249;1270;22665;-42
2023/12/08 05:58:07;;;;;;;10.20;8.20;;;;;;;0.16;100.00;100568.02;107496;1264;25494;-47
2023/12/08 06:00:34;;;;;;;10.60;7.70;;;;;;;0.22;100.00;100569.85;107651;1281;22541;-48
2023/12/08 06:03:01;;;;;;;10.80;7.70;;;;;;;0.28;100.00;100571.29;106943;1275;22589;-48
2023/12/08 06:05:28;;;;;;;11.90;7.40;;;;;;;0.33;100.00;100572.05;108151;1275;22554;-41
2023/12/08 06:07:54;;;;;;;10.50;7.60;;;;;;;0.38;100.00;100570.05;109897;1281;22302;-43
2023/12/08 06:10:21;;;;;;;11.00;8.20;;;;;;;0.44;100.00;100574.27;109556;1265;22481;-48
2023/12/08 06:12:49;;;;;;;12.70;7.80;;;;;;;0.48;100.00;100575.14;109845;1281;23051;-48
2023/12/08 06:15:17;;;;;;;15.10;7.70;;;;;;;0.55;100.00;100575.08;109641;1271;22212;-47
2023/12/08 06:17:44;;;;;;;9.80;7.10;;;;;;;0.63;100.00;100577.69;109819;1280;22870;-47
2023/12/08 06:20:12;;;;;;;11.70;7.90;;;;;;;0.70;100.00;100573.36;109809;1271;22418;-41
2023/12/08 06:22:39;;;;;;;10.60;7.90;;;;;;;0.74;100.00;100575.59;109749;1274;22570;-42
2023/12/08 06:25:06;;;;;;;11.50;7.90;;;;;;;0.72;100.00;100578.61;109764;1275;23193;-48
2023/12/08 06:27:36;;;;;;;12.40;8.40;;;;;;;0.69;100.00;100577.61;109802;1279;22250;-42
2023/12/08 06:30:05;;;;;;;10.60;7.40;;;;;;;0.70;100.00;100580.40;109732;1274;22936;-42
2023/12/08 06:32:33;;;;;;;11.90;7.10;;;;;;;0.74;100.00;100579.73;109539;1277;22225;-41
2023/12/08 06:35:03;;;;;;;11.00;7.70;;;;;;;0.80;100.00;100573.09;109682;1271;22481;-44
2023/12/08 06:37:32;;;;;;;14.50;8.50;;;;;;;0.85;100.00;100570.90;109256;1281;22360;-43
2023/12/08 06:39:59;;;;;;;9.30;7.50;;;;;;;0.87;100.00;100569.45;109670;1275;22443;-48
2023/12/08 06:42:25;;;;;;;11.90;7.60;;;;;;;0.90;100.00;100569.57;109685;1262;22457;-42
2023/12/08 06:44:52;;;;;;;11.50;8.40;;;;;;;0.92;100.00;100569.15;109685;1267;22998;-42
2023/12/08 06:47:19;;;;;;;9.20;7.00;;;;;;;0.98;100.00;100567.17;109684;1272;22490;-42
2023/12/08 06:49:46;;;;;;;9.60;7.50;;;;;;;1.01;100.00;100569.88;109728;1278;24639;-43
2023/12/08 06:52:13;;;;;;;10.40;7.50;;;;;;;0.98;100.00;100573.56;109799;1269;22584;-40
2023/12/08 06:54:40;;;;;;;10.20;6.90;;;;;;;0.94;100.00;100574.23;109479;1279;23321;-48
2023/12/08 06:57:08;;;;;;;9.40;6.50;;;;;;;0.86;100.00;100577.31;109668;1275;22490;-42
2023/12/08 06:59:35;;;;;;;10.80;7.50;;;;;;;0.79;100.00;100577.20;109798;1278;23056;-48
2023/12/08 07:02:02;;;;;;;10.80;6.50;;;;;;;0.79;100.00;100575.29;109737;1278;22376;-49
2023/12/08 07:04:29;;;;;;;11.90;6.90;;;;;;;0.77;100.00;100573.69;109723;1278;22432;-48
2023/12/08 07:06:57;;;;;;;10.20;6.90;;;;;;;0.77;100.00;100570.08;109757;1277;22401;-42
2023/12/08 07:09:24;;;;;;;9.70;7.20;;;;;;;0.81;100.00;100564.54;109744;1275;22410;-41
2023/12/08 07:11:52;;;;;;;10.90;7.30;;;;;;;0.89;100.00;100558.34;109658;1274;22436;-48
2023/12/08 07:14:27;;;;;;;10.30;7.50;;;;;;;0.99;100.00;100553.66;109370;1274;22424;-41
2023/12/08 07:16:54;;;;;;;10.30;7.40;;;;;;;1.06;100.00;100557.05;109396;1278;22329;-41
2023/12/08 07:19:21;;;;;;;9.80;7.20;;;;;;;1.10;100.00;100560.46;109544;1274;22519;-41
2023/12/08 07:21:48;;;;;;;9.40;7.00;;;;;;;1.11;100.00;100556.91;109695;1275;22429;-41
2023/12/08 07:24:16;;;;;;;14.30;8.50;;;;;;;1.12;100.00;100559.18;109191;1260;24062;-51
2023/12/08 07:26:43;;;;;;;10.30;7.60;;;;;;;1.14;100.00;100558.09;109363;1275;22719;-43
2023/12/08 07:29:10;;;;;;;11.90;8.00;;;;;;;1.18;100.00;100560.14;109623;1265;23374;-42
2023/12/08 07:31:37;;;;;;;12.10;8.00;;;;;;;1.19;100.00;100555.36;109703;1281;22437;-44
2023/12/08 07:34:03;;;;;;;13.80;7.70;;;;;;;1.24;100.00;100551.78;109657;1270;23013;-44
2023/12/08 07:36:30;;;;;;;13.00;7.70;;;;;;;1.28;100.00;100551.13;109579;1265;22330;-44
2023/12/08 07:39:03;;;;;;;11.60;7.40;;;;;;;1.33;100.00;100552.83;109620;1276;22488;-41
2023/12/08 07:41:30;;;;;;;11.20;8.00;;;;;;;1.37;100.00;100555.06;109643;1270;22374;-41
2023/12/08 07:43:59;;;;;;;7.50;5.90;;;;;;;1.39;100.00;100558.77;109540;1276;22416;-49
2023/12/08 07:46:27;;;;;;;8.80;6.20;;;;;;;1.40;100.00;100560.34;109739;1275;22363;-48
2023/12/08 07:48:53;;;;;;;9.90;7.40;;;;;;;1.38;100.00;100561.78;109682;1278;22410;-52
2023/12/08 07:51:20;;;;;;;9.70;7.40;;;;;;;1.39;100.00;100561.02;109672;1278;22359;-50
2023/12/08 07:53:47;;;;;;;9.60;6.70;;;;;;;1.47;100.00;100562.35;109756;1276;23171;-48
2023/12/08 07:56:14;;;;;;;10.20;6.10;;;;;;;1.56;100.00;100562.55;109772;1276;22429;-49
2023/12/08 07:58:41;;;;;;;9.50;6.50;;;;;;;1.64;100.00;100565.24;109759;1272;22538;-44
2023/12/08 08:01:08;;;;;;;8.50;5.60;;;;;;;1.69;100.00;100572.00;109548;1280;24148;-50
2023/12/08 08:03:37;;;;;;;9.60;6.30;;;;;;;1.70;100.00;100565.86;108811;1274;22420;-44
2023/12/08 08:06:05;;;;;;;6.70;5.30;;;;;;;1.77;100.00;100569.41;108962;1274;22977;-51
2023/12/08 08:08:33;;;;;;;8.80;7.30;;;;;;;1.82;100.00;100569.28;109085;1273;22383;-52
2023/12/08 08:11:00;;;;;;;11.90;6.70;;;;;;;1.82;100.00;100568.91;108705;1276;23171;-43
2023/12/08 08:13:28;;;;;;;9.40;7.20;;;;;;;1.79;100.00;100564.66;108354;1274;23161;-44
2023/12/08 08:15:59;;;;;;;7.40;5.90;;;;;;;1.79;100.00;100556.73;109291;1276;22386;-44
2023/12/08 08:18:28;;;;;;;9.00;6.40;;;;;;;1.80;100.00;100556.30;109500;1276;22296;-50
2023/12/08 08:20:55;;;;;;;8.60;6.20;;;;;;;1.82;100.00;100554.82;109635;1274;23629;-51
2023/12/08 08:23:25;;;;;;;10.20;6.80;;;;;;;1.83;100.00;100555.73;109489;1274;22553;-43
2023/12/08 08:25:54;;;;;;;7.70;5.90;;;;;;;1.86;100.00;100557.73;109139;1273;22466;-51
2023/12/08 08:28:24;;;;;;;7.60;5.60;;;;;;;1.88;100.00;100559.86;109394;1261;22271;-43
2023/12/08 08:30:51;;;;;;;8.80;6.20;;;;;;;1.90;100.00;100560.60;109765;1274;22196;-42
2023/12/08 08:33:17;;;;;;;9.00;5.50;;;;;;;1.93;100.00;100556.95;109714;1267;23046;-43
2023/12/08 08:35:44;;;;;;;8.60;6.50;;;;;;;1.96;100.00;100558.44;107679;1273;22539;-50
2023/12/08 08:38:11;;;;;;;8.50;6.00;;;;;;;1.96;100.00;100557.39;109456;1276;22306;-42
2023/12/08 08:40:38;;;;;;;9.00;6.20;;;;;;;1.98;100.00;100551.12;109145;1272;22401;-43
2023/12/08 08:43:04;;;;;;;9.40;5.80;;;;;;;2.01;100.00;100544.35;109591;1267;22545;-50
2023/12/08 08:45:32;;;;;;;8.70;6.60;;;;;;;2.06;100.00;100540.45;109805;1273;22938;-49
2023/12/08 08:48:00;;;;;;;7.80;5.40;;;;;;;2.16;100.00;100538.39;109714;1275;22282;-50
2023/12/08 08:50:27;;;;;;;10.60;6.10;;;;;;;2.16;100.00;100532.20;109303;1272;23233;-50
2023/12/08 08:53:08;;;;;;;8.80;5.60;;;;;;;2.19;100.00;100534.73;109553;1274;22869;-50
2023/12/08 08:55:37;;;;;;;8.50;5.90;;;;;;;2.23;100.00;100530.73;108889;1274;22447;-43
2023/12/08 08:58:04;;;;;;;9.20;6.30;;;;;;;2.25;100.00;100531.16;109530;1277;22497;-42
2023/12/08 09:00:31;;;;;;;8.30;6.00;;;;;;;2.29;100.00;100529.23;109546;1275;22407;-44
2023/12/08 09:02:58;;;;;;;8.60;6.80;;;;;;;2.30;100.00;100523.92;109650;1281;22411;-42
2023/12/08 09:05:36;;;;;;;6.50;5.20;;;;;;;2.34;100.00;100517.73;109672;1277;22758;-51
2023/12/08 09:08:04;;;;;;;8.40;5.60;;;;;;;2.41;99.82;100515.91;109508;1273;22548;-50
2023/12/08 09:10:31;;;;;;;6.70;5.40;;;;;;;2.44;99.24;100511.70;109726;1272;23888;-42
2023/12/08 09:12:58;;;;;;;6.70;5.60;;;;;;;2.40;98.44;100508.79;109323;1279;24585;-42
2023/12/08 09:15:25;;;;;;;9.10;6.20;;;;;;;2.29;98.00;100513.39;109422;1275;22381;-50
2023/12/08 09:18:05;;;;;;;8.90;6.60;;;;;;;2.25;98.51;100514.09;109734;1276;22375;-51
2023/12/08 09:20:39;;;;;;;9.80;6.80;;;;;;;2.25;98.18;100512.40;109303;1275;22220;-42
2023/12/08 09:23:12;;;;;;;8.00;6.10;;;;;;;2.17;97.75;100509.34;109222;1276;23364;-43
2023/12/08 09:25:49;;;;;;;9.10;6.20;;;;;;;2.07;97.74;100503.84;109070;1276;22549;-51
2023/12/08 09:28:17;;;;;;;8.50;6.30;;;;;;;2.00;97.71;100508.02;109357;1274;23381;-52
2023/12/08 09:30:45;;;;;;;8.00;5.90;;;;;;;1.90;97.87;100505.23;109567;1277;22983;-52
2023/12/08 09:33:16;;;;;;;7.50;5.80;;;;;;;1.85;98.39;100507.63;108641;1277;23157;-52
2023/12/08 09:36:00;;;;;;;7.70;5.40;;;;;;;1.80;98.75;100504.16;109673;1273;22405;-44
2023/12/08 09:38:27;;;;;;;8.00;5.50;;;;;;;1.76;98.96;100503.84;109689;1273;23037;-44
2023/12/08 09:41:04;;;;;;;9.50;6.10;;;;;;;1.68;99.11;100501.45;109547;1264;22718;-44
2023/12/08 09:43:38;;;;;;;6.20;5.10;;;;;;;1.65;99.76;100503.77;109502;1274;22380;-52
2023/12/08 09:46:05;;;;;;;9.30;5.50;;;;;;;1.67;99.73;100498.46;109511;1277;22428;-44
2023/12/08 09:48:33;;;;;;;9.80;6.00;;;;;;;1.67;99.88;100498.50;109716;1274;22758;-52
2023/12/08 09:51:07;;;;;;;8.20;6.30;;;;;;;1.71;100.00;100503.30;109543;1272;22386;-52
2023/12/08 09:53:40;;;;;;;8.20;6.10;;;;;;;1.75;100.00;100504.00;108956;1281;23461;-43
2023/12/08 09:56:08;;;;;;;10.00;5.80;;;;;;;1.82;100.00;100498.89;109358;1280;22529;-51
2023/12/08 09:58:35;;;;;;;10.20;5.90;;;;;;;1.90;100.00;100500.39;109576;1278;22392;-52
2023/12/08 10:01:02;;;;;;;9.40;5.60;;;;;;;2.00;100.00;100505.77;109643;1270;22417;-51
2023/12/08 10:03:29;;;;;;;7.90;5.50;;;;;;;2.11;100.00;100509.13;109471;1276;23018;-51
2023/12/08 10:05:56;;;;;;;8.20;5.50;;;;;;;2.17;100.00;100508.14;109349;1273;22381;-43
2023/12/08 10:08:23;;;;;;;6.80;4.70;;;;;;;2.20;99.72;100504.80;109632;1269;22333;-43
2023/12/08 10:10:49;;;;;;;8.80;6.50;;;;;;;2.19;99.77;100502.02;108739;1274;22493;-45
2023/12/08 10:13:16;;;;;;;8.00;6.00;;;;;;;2.21;99.89;100503.30;109686;1267;22724;-52
2023/12/08 10:15:43;;;;;;;7.70;5.20;;;;;;;2.20;99.63;100503.95;109723;1269;22174;-44
2023/12/08 10:18:23;;;;;;;6.90;5.60;;;;;;;2.20;99.66;100498.25;109730;1281;22330;-53
2023/12/08 10:20:52;;;;;;;6.80;5.30;;;;;;;2.19;99.63;100496.31;109583;1280;252258;-52
2023/12/08 10:23:20;;;;;;;8.40;6.10;;;;;;;2.20;99.87;100497.59;109775;1273;22358;-52
2023/12/08 10:25:48;;;;;;;9.10;5.00;;;;;;;2.24;99.81;100497.55;109836;1274;24077;-51
2023/12/08 10:28:15;;;;;;;7.30;5.50;;;;;;;2.25;99.61;100496.89;109806;1277;22292;-51
2023/12/08 10:30:49;;;;;;;6.20;4.70;;;;;;;2.28;99.71;100501.34;109782;1272;22438;-44
2023/12/08 10:33:21;;;;;;;8.20;5.70;;;;;;;2.33;99.55;100498.75;109576;1276;22208;-44
2023/12/08 10:35:54;;;;;;;7.00;5.10;;;;;;;2.36;99.37;100502.98;109352;1273;22568;-50
2023/12/08 10:38:21;;;;;;;6.70;5.50;;;;;;;2.37;99.24;100503.37;108323;1277;23449;-43
2023/12/08 10:40:49;;;;;;;6.00;4.70;;;;;;;2.39;99.30;100504.99;109728;1280;22934;-43
2023/12/08 10:43:22;;;;;;;9.80;5.90;;;;;;;2.39;98.94;100505.52;109489;1273;22483;-44
2023/12/08 10:45:52;;;;;;;5.20;4.30;;;;;;;2.36;99.15;100497.98;109242;1276;22339;-42
2023/12/08 10:48:22;;;;;;;5.90;4.80;;;;;;;2.35;98.98;100492.97;109680;1273;22656;-51
2023/12/08 10:50:52;;;;;;;7.30;4.80;;;;;;;2.36;99.13;100489.37;109658;1280;23383;-51
2023/12/08 10:53:20;;;;;;;8.70;4.70;;;;;;;2.33;98.85;100490.15;109653;1273;22373;-51
2023/12/08 10:55:52;;;;;;;7.00;4.90;;;;;;;2.26;98.80;100496.25;109365;1275;23831;-42
2023/12/08 10:58:20;;;;;;;6.40;4.90;;;;;;;2.23;99.03;100496.14;109174;1277;22363;-51
2023/12/08 11:00:48;;;;;;;6.40;4.50;;;;;;;2.22;99.19;100497.15;109442;1270;23211;-50
2023/12/08 11:03:19;;;;;;;8.10;4.60;;;;;;;2.19;98.95;100493.23;109590;1274;22356;-42
2023/12/08 11:06:24;;;;;;;4.90;4.00;;;;;;;2.10;98.98;100487.73;109756;1278;23322;-44
2023/12/08 11:08:54;;;;;;;7.20;4.40;;;;;;;2.02;99.47;100480.58;109143;1284;22417;-43
2023/12/08 11:11:26;;;;;;;7.20;5.20;;;;;;;2.03;99.90;100482.51;109164;1274;23502;-43
2023/12/08 11:14:09;;;;;;;8.00;4.80;;;;;;;2.06;100.00;100481.75;108851;1285;23255;-43
2023/12/08 11:16:46;;;;;;;5.80;4.70;;;;;;;2.11;100.00;100477.48;108943;1283;23308;-41
2023/12/08 11:19:13;;;;;;;4.70;4.10;;;;;;;2.13;100.00;100481.31;109090;1283;22506;-49
2023/12/08 11:21:40;;;;;;;6.90;4.90;;;;;;;2.09;99.99;100484.45;108953;1283;22419;-49
2023/12/08 11:24:08;;;;;;;7.80;4.40;;;;;;;2.06;99.95;100482.27;108613;1288;26648;-47
2023/12/08 11:26:42;;;;;;;7.10;5.10;;;;;;;2.00;99.93;100484.80;108895;1284;22996;-47
2023/12/08 11:29:16;;;;;;;10.70;6.70;;;;;;;1.96;100.00;100485.66;109060;1284;22475;-47
2023/12/08 11:32:19;;;;;;;6.70;4.70;;;;;;;1.99;100.00;100489.09;108780;1288;22430;-56
2023/12/08 11:34:56;;;;;;;7.70;5.70;;;;;;;2.06;100.00;100493.45;109053;1283;22462;-46
2023/12/08 11:37:23;;;;;;;8.30;5.30;;;;;;;2.07;100.00;100487.27;109148;1287;22233;-47
2023/12/08 11:39:51;;;;;;;7.50;5.10;;;;;;;2.13;100.00;100488.02;109122;1288;22322;-49
2023/12/08 11:42:20;;;;;;;10.20;4.70;;;;;;;2.20;100.00;100488.80;108971;1283;23297;-47
2023/12/08 11:44:48;;;;;;;6.20;4.50;;;;;;;2.22;100.00;100485.78;109373;1280;24529;-48
2023/12/08 11:47:18;;;;;;;5.50;4.40;;;;;;;2.23;100.00;100484.77;109681;1265;22380;-46
2023/12/08 11:49:48;;;;;;;6.20;4.30;;;;;;;2.25;100.00;100487.92;109685;1281;23123;-46
2023/12/08 11:52:19;;;;;;;5.30;4.50;;;;;;;2.27;100.00;100484.23;109719;1279;25961;-55
2023/12/08 11:55:24;;;;;;;7.60;4.70;;;;;;;2.29;100.00;100483.97;109662;1277;23101;-47
2023/12/08 11:58:09;;;;;;;4.90;4.30;;;;;;;2.25;100.00;100484.32;109285;1274;22410;-47
2023/12/08 12:00:43;;;;;;;8.70;4.60;;;;;;;2.16;100.00;100481.59;109677;1274;23230;-47
2023/12/08 12:03:13;;;;;;;6.20;4.40;;;;;;;2.09;100.00;100484.26;109528;1274;22305;-56
2023/12/08 12:05:48;;;;;;;7.30;5.10;;;;;;;2.01;100.00;100481.56;109706;1276;22935;-46
2023/12/08 12:08:15;;;;;;;6.00;4.60;;;;;;;1.96;100.00;100478.79;109580;1270;22293;-54
2023/12/08 12:10:42;;;;;;;6.10;4.30;;;;;;;1.92;100.00;100477.09;109601;1274;22920;-47
2023/12/08 12:13:12;;;;;;;6.50;4.60;;;;;;;1.88;100.00;100477.45;109784;1281;23103;-47
2023/12/08 12:15:40;;;;;;;5.10;3.80;;;;;;;1.80;100.00;100474.92;109830;1271;22254;-56
2023/12/08 12:18:07;;;;;;;8.50;4.00;;;;;;;1.75;100.00;100476.80;109838;1281;22470;-55
2023/12/08 12:20:35;;;;;;;4.60;3.80;;;;;;;1.74;100.00;100475.40;109871;1281;22371;-55
2023/12/08 12:23:02;;;;;;;5.10;4.30;;;;;;;1.70;100.00;100475.92;109898;1277;22888;-55
2023/12/08 12:25:29;;;;;;;5.60;4.30;;;;;;;1.67;100.00;100472.70;109703;1275;22279;-47
2023/12/08 12:27:57;;;;;;;5.60;4.80;;;;;;;1.67;100.00;100472.00;109417;1275;23446;-47
2023/12/08 12:30:25;;;;;;;9.00;4.50;;;;;;;1.65;100.00;100470.58;109164;1271;22461;-47
2023/12/08 12:32:53;;;;;;;6.30;4.50;;;;;;;1.62;100.00;100471.83;108504;1281;22266;-55
2023/12/08 12:35:20;;;;;;;8.10;5.10;;;;;;;1.59;100.00;100470.69;109747;1282;22305;-55
2023/12/08 12:37:47;;;;;;;7.80;4.70;;;;;;;1.59;100.00;100468.63;108182;1281;22311;-46
2023/12/08 12:40:14;;;;;;;7.30;4.60;;;;;;;1.57;100.00;100473.00;109270;1281;22741;-54
2023/12/08 12:42:42;;;;;;;8.10;4.80;;;;;;;1.50;100.00;100471.01;109878;1274;23195;-55
2023/12/08 12:45:44;;;;;;;5.50;4.40;;;;;;;1.45;100.00;100478.04;109920;1278;22967;-48
2023/12/08 12:48:11;;;;;;;6.10;5.00;;;;;;;1.41;100.00;100481.84;109395;1289;23204;-55
2023/12/08 12:50:45;;;;;;;6.00;5.00;;;;;;;1.40;100.00;100480.40;109304;1289;22275;-47
2023/12/08 12:53:14;;;;;;;8.30;5.00;;;;;;;1.40;100.00;100487.13;109326;1280;23095;-54
2023/12/08 12:55:40;;;;;;;8.90;5.80;;;;;;;1.40;100.00;100487.12;109304;1289;22257;-46
2023/12/08 12:58:21;;;;;;;6.30;4.80;;;;;;;1.41;100.00;100488.37;109347;1279;22254;-48
2023/12/08 13:00:48;;;;;;;5.50;4.90;;;;;;;1.40;100.00;100487.28;109231;1289;22612;-47
2023/12/08 13:03:20;;;;;;;7.50;5.10;;;;;;;1.37;100.00;100488.38;109265;1283;23107;-46
2023/12/08 13:05:54;;;;;;;8.50;5.60;;;;;;;1.32;100.00;100494.35;109275;1283;22259;-55
2023/12/08 13:08:21;;;;;;;4.80;4.00;;;;;;;1.30;100.00;100496.17;108895;1283;22549;-55
2023/12/08 13:10:49;;;;;;;7.80;5.80;;;;;;;1.28;100.00;100496.47;108413;1289;22964;-54
2023/12/08 13:13:16;;;;;;;7.50;6.20;;;;;;;1.26;100.00;100500.14;109267;1280;22778;-55
2023/12/08 13:15:44;;;;;;;10.10;5.30;;;;;;;1.23;100.00;100501.05;109262;1279;23018;-46
2023/12/08 13:18:10;;;;;;;7.60;5.50;;;;;;;1.21;100.00;100503.02;109252;1278;22422;-54
2023/12/08 13:20:38;;;;;;;7.80;5.70;;;;;;;1.20;100.00;100503.84;109250;1283;22426;-55
2023/12/08 13:23:06;;;;;;;8.50;6.40;;;;;;;1.19;100.00;100503.11;109712;1281;22225;-55
2023/12/08 13:25:33;;;;;;;8.70;6.50;;;;;;;1.17;100.00;100506.66;109793;1281;23507;-46
